createdAt,value
2022-11-18T00:01:28.302Z,29.03
2022-11-18T00:04:12.367Z,28.13
2022-11-18T00:06:39.583Z,31.43
2022-11-18T00:09:06.740Z,28.93
2022-11-18T00:11:52.048Z,31.53
2022-11-18T00:14:24.868Z,29.90
2022-11-18T00:17:02.090Z,28.07
2022-11-18T00:19:31.629Z,29.77
2022-11-18T00:21:58.982Z,31.43
2022-11-18T00:24:27.206Z,31.93
2022-11-18T00:26:57.494Z,29.40
2022-11-18T00:29:28.647Z,26.43
2022-11-18T00:31:56.898Z,26.17
2022-11-18T00:34:24.545Z,23.60
2022-11-18T00:36:51.489Z,27.03
2022-11-18T00:39:20.381Z,25.47
2022-11-18T00:42:06.582Z,22.20
2022-11-18T00:44:33.732Z,24.73
2022-11-18T00:47:00.541Z,22.80
2022-11-18T00:49:27.380Z,23.13
2022-11-18T00:51:54.236Z,24.53
2022-11-18T00:54:21.055Z,28.23
2022-11-18T00:56:47.877Z,27.10
2022-11-18T00:59:14.971Z,31.47
2022-11-18T01:01:41.962Z,30.13
2022-11-18T01:04:08.827Z,27.40
2022-11-18T01:06:35.665Z,27.10
2022-11-18T01:09:02.560Z,27.20
2022-11-18T01:11:48.244Z,29.17
2022-11-18T01:14:15.104Z,27.50
2022-11-18T01:16:41.941Z,32.07
2022-11-18T01:19:08.917Z,28.27
2022-11-18T01:21:36.590Z,30.60
2022-11-18T01:24:03.430Z,27.33
2022-11-18T01:26:30.263Z,27.53
2022-11-18T01:28:57.845Z,30.20
2022-11-18T01:31:25.068Z,30.10
2022-11-18T01:33:52.260Z,31.60
2022-11-18T01:36:25.211Z,29.23
2022-11-18T01:38:52.646Z,29.60
2022-11-18T01:41:21.363Z,30.80
2022-11-18T01:43:59.951Z,36.57
2022-11-18T01:46:29.865Z,35.03
2022-11-18T01:49:04.865Z,31.53
2022-11-18T01:51:35.239Z,33.77
2022-11-18T01:54:09.735Z,31.40
2022-11-18T01:56:43.804Z,30.27
2022-11-18T01:59:19.710Z,30.40
2022-11-18T02:01:47.421Z,30.17
2022-11-18T02:04:15.332Z,26.37
2022-11-18T02:06:46.966Z,28.47
2022-11-18T02:09:17.851Z,29.07
2022-11-18T02:11:50.993Z,25.87
2022-11-18T02:14:30.276Z,30.23
2022-11-18T02:17:03.028Z,29.53
2022-11-18T02:19:38.784Z,30.90
2022-11-18T02:22:19.015Z,31.80
2022-11-18T02:25:04.584Z,30.10
2022-11-18T02:28:03.279Z,34.73
2022-11-18T02:30:49.398Z,31.97
2022-11-18T02:33:26.605Z,32.80
2022-11-18T02:36:03.535Z,29.03
2022-11-18T02:38:37.021Z,32.07
2022-11-18T02:41:09.609Z,29.70
2022-11-18T02:43:59.756Z,30.13
2022-11-18T02:46:35.343Z,28.10
2022-11-18T02:49:07.116Z,28.33
2022-11-18T02:51:37.612Z,24.73
2022-11-18T02:54:08.735Z,22.70
2022-11-18T02:56:36.392Z,20.13
2022-11-18T02:59:04.463Z,21.70
2022-11-18T03:01:34.715Z,20.67
2022-11-18T03:04:02.093Z,22.77
2022-11-18T03:06:31.598Z,21.13
2022-11-18T03:09:07.301Z,19.60
2022-11-18T03:11:46.701Z,20.53
2022-11-18T03:14:46.986Z,20.67
2022-11-18T03:17:37.069Z,22.20
2022-11-18T03:20:29.708Z,20.63
2022-11-18T03:23:08.127Z,21.17
2022-11-18T03:25:41.087Z,22.40
2022-11-18T03:28:22.742Z,19.60
2022-11-18T03:31:29.523Z,20.60
2022-11-18T03:34:19.143Z,22.20
2022-11-18T03:36:52.080Z,20.03
2022-11-18T03:39:21.862Z,25.63
2022-11-18T03:41:55.079Z,22.33
2022-11-18T03:44:28.004Z,20.57
2022-11-18T03:47:12.822Z,20.37
2022-11-18T03:49:45.272Z,22.97
2022-11-18T03:52:19.013Z,23.07
2022-11-18T03:54:48.957Z,22.50
2022-11-18T03:57:24.372Z,22.90
2022-11-18T03:59:59.469Z,23.47
2022-11-18T04:02:29.937Z,22.43
2022-11-18T04:04:59.297Z,23.93
2022-11-18T04:07:57.048Z,28.57
2022-11-18T04:10:41.538Z,26.13
2022-11-18T04:13:25.154Z,23.07
2022-11-18T04:15:54.017Z,25.57
2022-11-18T04:18:20.893Z,24.77
2022-11-18T04:20:47.682Z,23.10
2022-11-18T04:23:14.494Z,24.43
2022-11-18T04:25:41.307Z,27.07
2022-11-18T04:28:08.133Z,25.60
2022-11-18T04:30:34.955Z,27.03
2022-11-18T04:33:01.868Z,27.83
2022-11-18T04:35:29.838Z,29.13
2022-11-18T04:37:56.669Z,23.10
2022-11-18T04:40:23.462Z,24.73
2022-11-18T04:42:50.285Z,25.57
2022-11-18T04:45:17.225Z,27.73
2022-11-18T04:47:44.049Z,24.67
2022-11-18T04:50:10.862Z,23.40
2022-11-18T04:52:37.670Z,21.07
2022-11-18T04:55:04.872Z,20.10
2022-11-18T04:57:31.776Z,20.80
2022-11-18T04:59:58.592Z,22.03
2022-11-18T05:02:25.366Z,24.00
2022-11-18T05:04:52.193Z,22.93
2022-11-18T05:07:19.070Z,24.43
2022-11-18T05:09:45.899Z,21.30
2022-11-18T05:12:32.930Z,22.73
2022-11-18T05:14:59.992Z,25.73
2022-11-18T05:17:26.861Z,26.70
2022-11-18T05:19:53.785Z,23.67
2022-11-18T05:22:20.576Z,23.40
2022-11-18T05:24:47.642Z,20.60
2022-11-18T05:27:14.953Z,25.67
2022-11-18T05:29:41.778Z,24.43
2022-11-18T05:32:08.554Z,25.43
2022-11-18T05:34:35.358Z,27.70
2022-11-18T05:37:02.186Z,28.17
2022-11-18T05:39:29.091Z,27.10
2022-11-18T05:42:14.405Z,23.97
2022-11-18T05:44:41.216Z,22.83
2022-11-18T05:47:08.339Z,23.00
2022-11-18T05:49:35.123Z,19.27
2022-11-18T05:52:02.044Z,17.90
2022-11-18T05:54:28.956Z,22.63
2022-11-18T05:56:55.966Z,16.93
2022-11-18T05:59:22.741Z,16.40
2022-11-18T06:01:52.208Z,16.23
2022-11-18T06:04:21.034Z,16.50
2022-11-18T06:06:50.823Z,17.07
2022-11-18T06:09:22.004Z,15.33
2022-11-18T06:11:53.433Z,17.83
2022-11-18T06:14:25.776Z,16.17
2022-11-18T06:16:56.418Z,14.03
2022-11-18T06:19:23.670Z,14.33
2022-11-18T06:21:50.966Z,15.70
2022-11-18T06:24:18.488Z,17.43
2022-11-18T06:26:46.636Z,21.13
2022-11-18T06:29:22.958Z,13.40
2022-11-18T06:31:52.910Z,10.93
2022-11-18T06:34:19.684Z,9.63
2022-11-18T06:36:46.501Z,9.10
2022-11-18T06:39:13.322Z,10.20
2022-11-18T06:41:40.134Z,9.77
2022-11-18T06:44:07.024Z,9.27
2022-11-18T06:46:52.175Z,9.40
2022-11-18T06:49:19.225Z,10.53
2022-11-18T06:51:46.109Z,12.40
2022-11-18T06:54:13.053Z,10.57
2022-11-18T06:56:39.848Z,9.70
2022-11-18T06:59:06.899Z,10.67
2022-11-18T07:01:39.429Z,10.20
2022-11-18T07:04:06.427Z,11.40
2022-11-18T07:06:36.105Z,12.80
2022-11-18T07:09:05.932Z,12.30
2022-11-18T07:11:33.272Z,12.63
2022-11-18T07:14:00.440Z,12.30
2022-11-18T07:16:28.923Z,11.47
2022-11-18T07:18:57.105Z,12.97
2022-11-18T07:21:28.968Z,18.07
2022-11-18T07:23:56.953Z,16.13
2022-11-18T07:26:25.075Z,13.30
2022-11-18T07:28:52.009Z,14.60
2022-11-18T07:31:20.589Z,13.97
2022-11-18T07:33:48.622Z,14.20
2022-11-18T07:36:24.590Z,14.27
2022-11-18T07:38:52.565Z,13.53
2022-11-18T07:41:22.126Z,14.83
2022-11-18T07:43:50.670Z,14.63
2022-11-18T07:46:19.461Z,15.07
2022-11-18T07:48:49.871Z,14.20
2022-11-18T07:51:20.556Z,13.67
2022-11-18T07:53:47.865Z,16.47
2022-11-18T07:56:15.646Z,15.40
2022-11-18T07:58:43.147Z,13.97
2022-11-18T08:01:17.978Z,13.70
2022-11-18T08:03:46.112Z,17.33
2022-11-18T08:06:14.989Z,16.13
2022-11-18T08:08:42.381Z,14.90
2022-11-18T08:11:13.523Z,13.70
2022-11-18T08:13:43.051Z,15.40
2022-11-18T08:16:15.555Z,15.27
2022-11-18T08:18:42.569Z,14.33
2022-11-18T08:21:09.790Z,14.80
2022-11-18T08:23:41.736Z,14.25
2022-11-18T08:26:14.636Z,13.57
2022-11-18T08:28:45.216Z,12.27
2022-11-18T08:31:18.982Z,11.50
2022-11-18T08:33:46.224Z,13.07
2022-11-18T08:36:20.734Z,12.60
2022-11-18T08:38:47.615Z,16.03
2022-11-18T08:41:26.957Z,14.80
2022-11-18T08:43:53.861Z,14.57
2022-11-18T08:46:21.028Z,13.20
2022-11-18T08:48:47.805Z,14.77
2022-11-18T08:51:15.865Z,15.50
2022-11-18T08:53:42.748Z,12.90
2022-11-18T08:56:18.820Z,12.80
2022-11-18T08:58:46.479Z,12.10
2022-11-18T09:01:13.797Z,11.30
2022-11-18T09:03:57.871Z,12.67
2022-11-18T09:06:28.991Z,10.87
2022-11-18T09:08:56.109Z,11.60
2022-11-18T09:11:25.769Z,10.60
2022-11-18T09:15:06.161Z,10.13
2022-11-18T09:16:41.900Z,9.43
2022-11-18T09:19:39.589Z,11.20
2022-11-18T09:21:58.635Z,9.63
2022-11-18T09:24:25.551Z,12.27
2022-11-18T09:26:53.775Z,11.73
2022-11-18T09:29:25.457Z,11.50
2022-11-18T09:31:55.582Z,12.30
2022-11-18T09:34:23.190Z,10.87
2022-11-18T09:36:50.752Z,17.70
2022-11-18T09:39:17.936Z,10.27
2022-11-18T09:41:47.867Z,8.03
2022-11-18T09:44:20.635Z,12.43
2022-11-18T09:47:20.561Z,10.57
2022-11-18T09:49:48.750Z,10.50
2022-11-18T09:52:24.620Z,11.97
2022-11-18T09:54:51.496Z,13.30
2022-11-18T09:57:21.809Z,11.63
2022-11-18T09:59:48.714Z,12.27
2022-11-18T10:02:37.232Z,13.90
2022-11-18T10:05:29.226Z,11.27
2022-11-18T10:08:15.299Z,10.93
2022-11-18T10:11:12.651Z,10.20
2022-11-18T10:14:01.244Z,12.03
2022-11-18T10:16:57.957Z,13.03
2022-11-18T10:19:39.803Z,15.43
2022-11-18T10:22:24.351Z,10.27
2022-11-18T10:24:54.552Z,10.67
2022-11-18T10:27:23.398Z,10.90
2022-11-18T10:29:57.192Z,8.80
2022-11-18T10:32:24.735Z,9.40
2022-11-18T10:34:56.276Z,8.67
2022-11-18T10:38:06.118Z,9.23
2022-11-18T10:40:28.861Z,8.97
2022-11-18T10:42:56.536Z,11.20
2022-11-18T10:45:23.279Z,10.10
2022-11-18T10:48:16.181Z,8.37
2022-11-18T10:50:53.508Z,8.23
2022-11-18T10:53:34.412Z,8.73
2022-11-18T10:56:03.953Z,10.77
2022-11-18T10:58:32.626Z,9.67
2022-11-18T11:01:14.198Z,11.87
2022-11-18T11:03:52.995Z,8.57
2022-11-18T11:06:38.689Z,8.47
2022-11-18T11:09:10.203Z,9.57
2022-11-18T11:11:40.491Z,7.03
2022-11-18T11:14:26.693Z,13.27
2022-11-18T11:17:14.161Z,6.10
2022-11-18T11:20:03.979Z,7.67
2022-11-18T11:22:30.853Z,7.27
2022-11-18T11:24:57.861Z,6.40
2022-11-18T11:30:38.641Z,7.27
2022-11-18T11:33:31.318Z,7.23
2022-11-18T11:36:14.597Z,6.33
2022-11-18T11:39:08.956Z,6.30
2022-11-18T11:41:47.604Z,7.87
2022-11-18T11:44:53.720Z,6.50
2022-11-18T11:47:47.864Z,5.83
2022-11-18T11:50:22.188Z,5.83
2022-11-18T11:53:19.849Z,6.93
2022-11-18T11:56:03.390Z,6.30
2022-11-18T11:58:38.082Z,7.77
2022-11-18T12:01:09.854Z,6.97
2022-11-18T12:03:39.655Z,7.53
2022-11-18T12:06:10.056Z,6.63
2022-11-18T12:08:39.550Z,6.63
2022-11-18T12:11:17.219Z,8.37
2022-11-18T12:13:52.464Z,6.13
2022-11-18T12:16:46.197Z,6.80
2022-11-18T12:19:16.736Z,5.33
2022-11-18T12:21:47.090Z,5.63
2022-11-18T12:24:20.725Z,7.13
2022-11-18T12:26:49.559Z,5.93
2022-11-18T12:29:21.316Z,8.63
2022-11-18T12:32:03.705Z,8.00
2022-11-18T12:34:44.735Z,9.73
2022-11-18T12:37:23.858Z,7.73
2022-11-18T12:39:57.385Z,7.87
2022-11-18T12:43:03.091Z,8.57
2022-11-18T12:45:44.922Z,10.13
2022-11-18T12:48:27.366Z,6.67
2022-11-18T12:50:56.867Z,9.27
2022-11-18T12:53:48.443Z,9.33
2022-11-18T12:56:18.171Z,7.00
2022-11-18T12:58:46.580Z,8.17
2022-11-18T13:01:16.501Z,6.65
2022-11-18T13:03:43.372Z,9.47
2022-11-18T13:06:34.663Z,8.73
2022-11-18T13:09:03.917Z,7.63
2022-11-18T13:11:46.079Z,6.20
2022-11-18T13:14:39.174Z,7.27
2022-11-18T13:17:52.165Z,9.10
2022-11-18T13:20:29.423Z,7.00
2022-11-18T13:23:17.955Z,7.37
2022-11-18T13:25:46.123Z,7.40
2022-11-18T13:28:29.005Z,8.93
2022-11-18T13:31:24.044Z,7.63
2022-11-18T13:33:52.213Z,6.30
2022-11-18T13:36:22.356Z,8.07
2022-11-18T13:39:04.409Z,8.23
2022-11-18T13:41:33.732Z,8.40
2022-11-18T13:44:21.846Z,6.83
2022-11-18T13:46:54.333Z,7.03
2022-11-18T13:49:50.658Z,5.97
2022-11-18T13:52:37.968Z,8.63
2022-11-18T13:55:35.366Z,9.37
2022-11-18T13:58:06.002Z,9.97
2022-11-18T14:00:35.971Z,7.43
2022-11-18T14:03:06.367Z,6.53
2022-11-18T14:05:33.394Z,9.73
2022-11-18T14:08:03.498Z,7.37
2022-11-18T14:10:42.721Z,7.87
2022-11-18T14:13:36.738Z,17.50
2022-11-18T14:16:23.798Z,11.33
2022-11-18T14:18:51.975Z,7.87
2022-11-18T14:21:30.436Z,8.87
2022-11-18T14:23:57.921Z,9.43
2022-11-18T14:26:36.926Z,11.03
2022-11-18T14:29:22.894Z,10.07
2022-11-18T14:32:14.918Z,7.13
2022-11-18T14:34:42.061Z,9.67
2022-11-18T14:37:14.381Z,12.03
2022-11-18T14:39:42.159Z,10.50
2022-11-18T14:42:13.111Z,12.33
2022-11-18T14:44:39.896Z,11.27
2022-11-18T14:47:27.512Z,11.30
2022-11-18T14:49:54.533Z,10.73
2022-11-18T14:52:21.378Z,12.53
2022-11-18T14:54:48.230Z,13.10
2022-11-18T14:57:17.225Z,12.40
2022-11-18T14:59:44.300Z,12.67
2022-11-18T15:02:18.132Z,13.27
2022-11-18T15:04:45.413Z,12.43
2022-11-18T15:07:21.738Z,13.80
2022-11-18T15:09:50.834Z,13.00
2022-11-18T15:12:17.773Z,16.80
2022-11-18T15:14:44.629Z,13.73
2022-11-18T15:17:12.639Z,15.80
2022-11-18T15:19:40.811Z,13.50
2022-11-18T15:22:08.305Z,16.00
2022-11-18T15:24:35.252Z,16.67
2022-11-18T15:27:05.639Z,14.33
2022-11-18T15:29:32.588Z,16.13
2022-11-18T15:32:00.259Z,15.57
2022-11-18T15:34:27.201Z,13.77
2022-11-18T15:36:54.086Z,11.03
2022-11-18T15:39:21.060Z,14.10
2022-11-18T15:41:48.113Z,17.37
2022-11-18T15:44:16.283Z,12.67
2022-11-18T15:46:45.468Z,12.33
2022-11-18T15:49:14.629Z,14.90
2022-11-18T15:51:41.787Z,13.27
2022-11-18T15:54:08.755Z,13.40
2022-11-18T15:56:36.010Z,13.80
2022-11-18T15:59:09.249Z,12.53
2022-11-18T16:01:41.747Z,11.00
2022-11-18T16:04:11.292Z,12.07
2022-11-18T16:06:38.709Z,10.13
2022-11-18T16:09:06.861Z,10.73
2022-11-18T16:11:52.195Z,9.47
2022-11-18T16:14:24.071Z,9.63
2022-11-18T16:16:54.269Z,9.70
2022-11-18T16:19:27.611Z,10.27
2022-11-18T16:22:02.083Z,11.40
2022-11-18T16:24:32.073Z,8.67
2022-11-18T16:26:59.164Z,10.27
2022-11-18T16:29:25.980Z,8.77
2022-11-18T16:31:55.189Z,9.87
2022-11-18T16:34:27.574Z,10.40
2022-11-18T16:36:56.970Z,11.37
2022-11-18T16:39:28.412Z,10.57
2022-11-18T16:42:02.247Z,10.83
2022-11-18T16:44:35.182Z,10.73
2022-11-18T16:47:02.367Z,10.57
2022-11-18T16:49:29.219Z,10.50
2022-11-18T16:51:57.282Z,12.43
2022-11-18T16:54:25.409Z,12.83
2022-11-18T16:56:54.427Z,13.13
2022-11-18T16:59:26.476Z,12.33
2022-11-18T17:01:55.201Z,12.73
2022-11-18T17:04:24.460Z,13.17
2022-11-18T17:06:51.463Z,10.77
2022-11-18T17:09:21.104Z,14.50
2022-11-18T17:11:48.741Z,12.87
2022-11-18T17:14:15.959Z,14.03
2022-11-18T17:16:43.006Z,12.43
2022-11-18T17:19:14.208Z,13.43
2022-11-18T17:21:41.643Z,14.77
2022-11-18T17:24:09.587Z,13.03
2022-11-18T17:26:39.406Z,12.27
2022-11-18T17:29:06.676Z,13.77
2022-11-18T17:31:34.009Z,12.83
2022-11-18T17:34:00.878Z,16.27
2022-11-18T17:36:30.753Z,14.70
2022-11-18T17:38:59.864Z,15.17
2022-11-18T17:41:51.332Z,14.53
2022-11-18T17:44:19.425Z,15.00
2022-11-18T17:46:51.933Z,18.77
2022-11-18T17:49:27.286Z,16.47
2022-11-18T17:51:54.696Z,17.90
2022-11-18T17:54:25.986Z,14.80
2022-11-18T17:56:53.086Z,16.30
2022-11-18T17:59:23.395Z,15.40
2022-11-18T18:01:57.299Z,16.33
2022-11-18T18:04:26.049Z,12.83
2022-11-18T18:06:53.302Z,12.60
2022-11-18T18:09:27.026Z,13.50
2022-11-18T18:11:57.912Z,12.53
2022-11-18T18:14:43.278Z,13.50
2022-11-18T18:17:11.069Z,11.40
2022-11-18T18:19:37.977Z,13.20
2022-11-18T18:22:04.878Z,11.87
2022-11-18T18:24:31.949Z,15.70
2022-11-18T18:26:58.766Z,13.47
2022-11-18T18:29:25.849Z,15.03
2022-11-18T18:31:55.451Z,16.30
2022-11-18T18:34:22.517Z,15.07
2022-11-18T18:36:49.443Z,17.43
2022-11-18T18:39:16.325Z,16.50
2022-11-18T18:41:43.171Z,18.40
2022-11-18T18:44:15.226Z,18.27
2022-11-18T18:46:45.065Z,17.53
2022-11-18T18:49:20.305Z,18.10
2022-11-18T18:51:50.724Z,18.40
2022-11-18T18:54:19.715Z,16.87
2022-11-18T18:56:46.812Z,16.63
2022-11-18T18:59:13.664Z,20.13
2022-11-18T19:01:42.876Z,18.13
2022-11-18T19:04:13.084Z,17.73
2022-11-18T19:09:28.694Z,16.40
2022-11-18T19:12:14.189Z,17.30
2022-11-18T19:14:41.306Z,13.73
2022-11-18T19:17:12.625Z,15.67
2022-11-18T19:19:59.559Z,15.87
2022-11-18T19:22:30.291Z,16.67
2022-11-18T19:24:58.169Z,16.53
2022-11-18T19:27:25.823Z,17.70
2022-11-18T19:29:53.035Z,16.77
2022-11-18T19:32:19.905Z,16.23
2022-11-18T19:34:46.728Z,14.53
2022-11-18T19:37:13.534Z,15.10
2022-11-18T19:39:40.335Z,14.43
2022-11-18T19:42:07.816Z,13.13
2022-11-18T19:44:34.656Z,13.43
2022-11-18T19:47:04.653Z,12.50
2022-11-18T19:49:31.601Z,10.00
2022-11-18T19:51:58.418Z,13.17
2022-11-18T19:54:25.313Z,9.83
2022-11-18T19:56:52.225Z,11.67
2022-11-18T19:59:19.421Z,11.07
2022-11-18T20:01:46.589Z,10.43
2022-11-18T20:04:13.742Z,11.20
2022-11-18T20:06:40.735Z,9.83
2022-11-18T20:09:08.647Z,13.37
2022-11-18T20:11:35.743Z,10.43
2022-11-18T20:14:02.921Z,10.97
2022-11-18T20:16:29.779Z,10.07
2022-11-18T20:19:05.206Z,9.67
2022-11-18T20:21:36.222Z,12.50
2022-11-18T20:24:04.872Z,9.63
2022-11-18T20:26:37.085Z,11.40
2022-11-18T20:29:06.654Z,10.00
2022-11-18T20:31:35.261Z,11.87
2022-11-18T20:34:02.693Z,12.90
2022-11-18T20:36:31.889Z,10.93
2022-11-18T20:39:01.156Z,13.33
2022-11-18T20:41:31.847Z,16.20
2022-11-18T20:43:59.883Z,15.07
2022-11-18T20:46:27.436Z,16.13
2022-11-18T20:48:55.152Z,13.10
2022-11-18T20:51:23.615Z,14.47
2022-11-18T20:53:53.664Z,14.27
2022-11-18T20:56:23.550Z,16.50
2022-11-18T20:58:51.067Z,14.53
2022-11-18T21:01:23.902Z,16.57
2022-11-18T21:03:53.662Z,19.60
2022-11-18T21:06:22.376Z,18.10
2022-11-18T21:08:49.351Z,18.87
2022-11-18T21:11:17.202Z,16.83
2022-11-18T21:14:02.817Z,19.20
2022-11-18T21:16:29.635Z,19.43
2022-11-18T21:18:56.539Z,19.07
2022-11-18T21:21:41.830Z,16.00
2022-11-18T21:24:08.917Z,15.73
2022-11-18T21:26:37.663Z,16.20
2022-11-18T21:29:15.268Z,17.53
2022-11-18T21:31:57.448Z,16.60
2022-11-18T21:34:30.543Z,16.60
2022-11-18T21:36:58.156Z,16.93
2022-11-18T21:39:25.443Z,15.80
2022-11-18T21:41:56.813Z,17.57
2022-11-18T21:44:25.643Z,15.47
2022-11-18T21:46:52.652Z,14.80
2022-11-18T21:49:19.724Z,18.07
2022-11-18T21:51:46.615Z,16.63
2022-11-18T21:54:16.024Z,15.27
2022-11-18T21:56:43.124Z,18.13
2022-11-18T21:59:10.051Z,15.67
2022-11-18T22:01:37.052Z,20.23
2022-11-18T22:04:05.705Z,15.10
2022-11-18T22:06:34.536Z,18.20
2022-11-18T22:09:06.154Z,14.57
2022-11-18T22:11:33.088Z,16.53
2022-11-18T22:14:00.054Z,16.20
2022-11-18T22:16:27.475Z,15.80
2022-11-18T22:19:01.385Z,16.73
2022-11-18T22:21:32.135Z,14.33
2022-11-18T22:24:00.144Z,17.10
2022-11-18T22:26:27.781Z,17.00
2022-11-18T22:28:56.783Z,15.17
2022-11-18T22:31:25.566Z,14.80
2022-11-18T22:33:54.766Z,16.87
2022-11-18T22:36:23.907Z,15.23
2022-11-18T22:38:50.887Z,14.77
2022-11-18T22:41:38.844Z,16.17
2022-11-18T22:44:08.172Z,15.03
2022-11-18T22:46:36.388Z,17.20
2022-11-18T22:49:04.315Z,17.90
2022-11-18T22:51:31.294Z,16.40
2022-11-18T22:54:22.993Z,16.07
2022-11-18T22:56:44.989Z,16.77
2022-11-18T22:59:12.801Z,15.23
2022-11-18T23:01:39.772Z,15.50
2022-11-18T23:04:06.762Z,15.07
2022-11-18T23:06:33.946Z,14.73
2022-11-18T23:09:00.873Z,17.73
2022-11-18T23:11:46.365Z,14.50
2022-11-18T23:14:13.250Z,14.67
2022-11-18T23:16:41.983Z,14.87
2022-11-18T23:19:14.451Z,14.23
2022-11-18T23:21:41.978Z,14.37
2022-11-18T23:24:13.491Z,16.37
2022-11-18T23:26:40.639Z,13.63
2022-11-18T23:29:07.884Z,13.13
2022-11-18T23:31:34.740Z,12.33
2022-11-18T23:34:01.534Z,15.10
2022-11-18T23:36:28.568Z,11.97
2022-11-18T23:38:55.719Z,12.93
2022-11-18T23:41:22.771Z,13.50
2022-11-18T23:43:49.895Z,14.57
2022-11-18T23:46:18.084Z,15.73
2022-11-18T23:48:48.406Z,13.47
2022-11-18T23:51:20.539Z,15.33
2022-11-18T23:53:51.331Z,13.23
2022-11-18T23:56:22.153Z,15.23
2022-11-18T23:58:51.269Z,14.43
